Time,TemperatureF,DewpointF,PressureIn,WindDirection,WindDirectionDegrees,WindSpeedMPH,WindSpeedGustMPH,Humidity,HourlyPrecipIn,Conditions,Clouds,dailyrainin,SoftwareType,DateUTC
2013-02-02 00:09:00,37.9,35.6,30.10,East,90,0.0,-999.0,91,-99.99,,,0.00,Acu-Link.com,2013-02-02 05:09:00,
2013-02-02 00:24:00,37.4,34.7,30.10,NNE,22,0.0,-999.0,90,-99.99,,,0.00,Acu-Link.com,2013-02-02 05:24:00,
2013-02-02 00:39:00,37.0,34.4,30.10,NNW,337,0.0,-999.0,90,-99.99,,,0.00,Acu-Link.com,2013-02-02 05:39:00,
2013-02-02 00:55:00,37.0,36.0,30.11,NNW,337,0.0,-999.0,96,-99.99,,,0.00,Acu-Link.com,2013-02-02 05:55:00,
2013-02-02 01:10:00,37.0,36.5,30.11,NW,315,0.0,-999.0,98,-99.99,,,0.00,Acu-Link.com,2013-02-02 06:10:00,
2013-02-02 01:25:00,36.9,35.6,30.10,WNW,292,0.0,-999.0,95,-99.99,,,0.00,Acu-Link.com,2013-02-02 06:25:00,
2013-02-02 01:40:00,37.0,35.2,30.10,West,270,0.0,-999.0,93,-99.99,,,0.00,Acu-Link.com,2013-02-02 06:40:00,
2013-02-02 01:56:00,37.0,33.5,30.10,SSE,157,0.0,-999.0,87,-99.99,,,0.00,Acu-Link.com,2013-02-02 06:56:00,
2013-02-02 02:11:00,36.5,32.4,30.10,NE,45,0.0,-999.0,85,-99.99,,,0.00,Acu-Link.com,2013-02-02 07:11:00,
2013-02-02 02:26:00,36.1,30.6,30.09,SSE,157,0.0,-999.0,80,-99.99,,,0.00,Acu-Link.com,2013-02-02 07:26:00,
2013-02-02 02:42:00,35.8,29.9,30.09,SE,135,0.0,-999.0,79,-99.99,,,0.00,Acu-Link.com,2013-02-02 07:42:00,
2013-02-02 02:57:00,35.2,27.8,30.10,NE,45,0.0,-999.0,74,-99.99,,,0.00,Acu-Link.com,2013-02-02 07:57:00,
2013-02-02 03:12:00,35.2,28.1,30.09,SSE,157,0.0,-999.0,75,-99.99,,,0.00,Acu-Link.com,2013-02-02 08:12:00,
2013-02-02 03:28:00,35.2,31.2,30.09,NE,45,0.0,-999.0,85,-99.99,,,0.00,Acu-Link.com,2013-02-02 08:28:00,
2013-02-02 03:43:00,35.1,32.2,30.09,NE,45,0.0,-999.0,89,-99.99,,,0.00,Acu-Link.com,2013-02-02 08:43:00,
2013-02-02 03:58:00,34.3,31.2,30.09,WNW,292,0.0,-999.0,88,-99.99,,,0.00,Acu-Link.com,2013-02-02 08:58:00,
2013-02-02 04:16:00,34.5,31.3,30.10,NW,315,0.0,-999.0,88,-99.99,,,0.00,Acu-Link.com,2013-02-02 09:16:00,
2013-02-02 04:31:00,34.3,31.7,30.09,South,180,0.0,-999.0,90,-99.99,,,0.00,Acu-Link.com,2013-02-02 09:31:00,
2013-02-02 04:47:00,34.0,30.8,30.09,SSE,157,0.0,-999.0,88,-99.99,,,0.00,Acu-Link.com,2013-02-02 09:47:00,
2013-02-02 05:02:00,33.3,30.1,30.09,SSW,202,0.0,-999.0,88,-99.99,,,0.00,Acu-Link.com,2013-02-02 10:02:00,
2013-02-02 05:17:00,32.9,29.7,30.09,WNW,292,0.0,-999.0,88,-99.99,,,0.00,Acu-Link.com,2013-02-02 10:17:00,
2013-02-02 05:32:00,32.5,29.4,30.09,South,180,0.0,-999.0,88,-99.99,,,0.00,Acu-Link.com,2013-02-02 10:32:00,
2013-02-02 05:47:00,32.5,29.1,30.10,East,90,0.0,-999.0,87,-99.99,,,0.00,Acu-Link.com,2013-02-02 10:47:00,
2013-02-02 06:02:00,32.5,28.5,30.10,SSE,157,0.0,-999.0,85,-99.99,,,0.00,Acu-Link.com,2013-02-02 11:02:00,
2013-02-02 06:17:00,32.4,28.4,30.11,SSE,157,0.0,-999.0,85,-99.99,,,0.00,Acu-Link.com,2013-02-02 11:17:00,
2013-02-02 06:33:00,32.2,28.5,30.10,SSE,157,0.0,-999.0,86,-99.99,,,0.00,Acu-Link.com,2013-02-02 11:33:00,
2013-02-02 06:48:00,32.2,28.8,30.11,SSE,157,0.0,-999.0,87,-99.99,,,0.00,Acu-Link.com,2013-02-02 11:48:00,
2013-02-02 07:03:00,32.0,28.6,30.12,SSE,157,0.0,-999.0,87,-99.99,,,0.00,Acu-Link.com,2013-02-02 12:03:00,
2013-02-02 07:19:00,31.6,27.7,30.11,East,90,0.0,-999.0,85,-99.99,,,0.00,Acu-Link.com,2013-02-02 12:19:00,
2013-02-02 07:34:00,31.6,27.7,30.12,SSE,157,0.0,-999.0,85,-99.99,,,0.00,Acu-Link.com,2013-02-02 12:34:00,
2013-02-02 07:49:00,31.5,28.0,30.12,ESE,112,0.0,-999.0,87,-99.99,,,0.00,Acu-Link.com,2013-02-02 12:49:00,
2013-02-02 08:04:00,32.0,28.3,30.12,SSE,157,0.0,-999.0,86,-99.99,,,0.00,Acu-Link.com,2013-02-02 13:04:00,
2013-02-02 08:20:00,32.9,28.6,30.12,WNW,292,0.0,-999.0,84,-99.99,,,0.00,Acu-Link.com,2013-02-02 13:20:00,
2013-02-02 08:35:00,38.5,28.5,30.12,WNW,292,0.0,-999.0,67,-99.99,,,0.00,Acu-Link.com,2013-02-02 13:35:00,
2013-02-02 08:50:00,42.3,28.1,30.11,West,270,0.0,-999.0,57,-99.99,,,0.00,Acu-Link.com,2013-02-02 13:50:00,
2013-02-02 09:06:00,44.2,28.2,30.12,WNW,292,0.0,-999.0,53,-99.99,,,0.00,Acu-Link.com,2013-02-02 14:06:00,
2013-02-02 09:21:00,45.5,29.4,30.11,NE,45,1.6,-999.0,53,-99.99,,,0.00,Acu-Link.com,2013-02-02 14:21:00,
2013-02-02 09:36:00,49.8,30.4,30.11,WNW,292,1.6,-999.0,47,-99.99,,,0.00,Acu-Link.com,2013-02-02 14:36:00,
2013-02-02 09:52:00,50.9,31.9,30.11,North,0,2.2,-999.0,48,-99.99,,,0.00,Acu-Link.com,2013-02-02 14:52:00,
2013-02-02 10:07:00,55.4,33.9,30.10,West,270,1.1,-999.0,44,-99.99,,,0.00,Acu-Link.com,2013-02-02 15:07:00,
2013-02-02 10:22:00,57.7,34.2,30.11,SSE,157,0.0,-999.0,41,-99.99,,,0.00,Acu-Link.com,2013-02-02 15:22:00,
2013-02-02 10:37:00,57.9,34.4,30.10,NE,45,0.0,-999.0,41,-99.99,,,0.00,Acu-Link.com,2013-02-02 15:37:00,
2013-02-02 10:53:00,58.1,33.3,30.09,NE,45,1.6,-999.0,39,-99.99,,,0.00,Acu-Link.com,2013-02-02 15:53:00,
2013-02-02 11:08:00,56.8,33.4,30.09,NNW,337,1.6,-999.0,41,-99.99,,,0.00,Acu-Link.com,2013-02-02 16:08:00,
2013-02-02 11:23:00,59.5,33.2,30.09,North,0,1.6,-999.0,37,-99.99,,,0.00,Acu-Link.com,2013-02-02 16:23:00,
2013-02-02 11:38:00,59.4,31.7,30.08,ENE,67,1.6,-999.0,35,-99.99,,,0.00,Acu-Link.com,2013-02-02 16:38:00,
2013-02-02 11:54:00,59.7,32.7,30.07,North,0,1.6,-999.0,36,-99.99,,,0.00,Acu-Link.com,2013-02-02 16:54:00,
2013-02-02 12:09:00,58.6,33.1,30.06,SE,135,2.7,-999.0,38,-99.99,,,0.00,Acu-Link.com,2013-02-02 17:09:00,
2013-02-02 12:24:00,59.2,34.2,30.04,East,90,1.6,-999.0,39,-99.99,,,0.00,Acu-Link.com,2013-02-02 17:24:00,
2013-02-02 12:40:00,60.4,33.4,30.03,South,180,1.6,-999.0,36,-99.99,,,0.00,Acu-Link.com,2013-02-02 17:40:00,
2013-02-02 12:55:00,61.9,34.6,30.02,NE,45,1.6,-999.0,36,-99.99,,,0.00,Acu-Link.com,2013-02-02 17:55:00,
2013-02-02 13:10:00,61.3,34.2,30.02,West,270,1.6,-999.0,36,-99.99,,,0.00,Acu-Link.com,2013-02-02 18:10:00,
2013-02-02 13:25:00,61.7,34.5,29.99,NNW,337,2.7,-999.0,36,-99.99,,,0.00,Acu-Link.com,2013-02-02 18:25:00,
2013-02-02 13:41:00,64.2,35.3,29.99,NNW,337,1.6,-999.0,34,-99.99,,,0.00,Acu-Link.com,2013-02-02 18:41:00,
2013-02-02 13:56:00,63.5,35.4,29.97,NE,45,1.1,-999.0,35,-99.99,,,0.00,Acu-Link.com,2013-02-02 18:56:00,
2013-02-02 14:11:00,64.8,35.0,29.97,WSW,247,2.2,-999.0,33,-99.99,,,0.00,Acu-Link.com,2013-02-02 19:11:00,
2013-02-02 14:27:00,65.7,34.2,29.96,SSW,202,2.7,-999.0,31,-99.99,,,0.00,Acu-Link.com,2013-02-02 19:27:00,
2013-02-02 14:42:00,65.1,32.9,29.96,ESE,112,3.1,-999.0,30,-99.99,,,0.00,Acu-Link.com,2013-02-02 19:42:00,
2013-02-02 14:57:00,67.1,33.8,29.96,SSE,157,0.0,-999.0,29,-99.99,,,0.00,Acu-Link.com,2013-02-02 19:57:00,
2013-02-02 15:13:00,64.0,32.8,29.94,East,90,1.1,-999.0,31,-99.99,,,0.00,Acu-Link.com,2013-02-02 20:13:00,
2013-02-02 15:28:00,64.8,33.4,29.93,NNE,22,1.1,-999.0,31,-99.99,,,0.00,Acu-Link.com,2013-02-02 20:28:00,
2013-02-02 15:43:00,65.1,32.1,29.93,East,90,1.6,-999.0,29,-99.99,,,0.00,Acu-Link.com,2013-02-02 20:43:00,
2013-02-02 15:58:00,66.7,32.6,29.92,North,0,1.6,-999.0,28,-99.99,,,0.00,Acu-Link.com,2013-02-02 20:58:00,
2013-02-02 16:14:00,65.7,31.7,29.93,WNW,292,2.7,-999.0,28,-99.99,,,0.00,Acu-Link.com,2013-02-02 21:14:00,
2013-02-02 16:29:00,66.0,34.5,29.93,East,90,0.0,-999.0,31,-99.99,,,0.00,Acu-Link.com,2013-02-02 21:29:00,
2013-02-02 16:44:00,65.3,33.1,29.92,NNW,337,1.6,-999.0,30,-99.99,,,0.00,Acu-Link.com,2013-02-02 21:44:00,
2013-02-02 16:59:00,64.4,32.3,29.92,SSW,202,1.1,-999.0,30,-99.99,,,0.00,Acu-Link.com,2013-02-02 21:59:00,
2013-02-02 17:14:00,62.8,35.4,29.92,SSE,157,0.0,-999.0,36,-99.99,,,0.00,Acu-Link.com,2013-02-02 22:14:00,
2013-02-02 17:29:00,62.4,33.7,29.92,NE,45,1.6,-999.0,34,-99.99,,,0.00,Acu-Link.com,2013-02-02 22:29:00,
2013-02-02 17:45:00,61.2,37.3,29.92,NE,45,0.0,-999.0,41,-99.99,,,0.00,Acu-Link.com,2013-02-02 22:45:00,
2013-02-02 18:00:00,59.2,37.9,29.92,ESE,112,0.0,-999.0,45,-99.99,,,0.00,Acu-Link.com,2013-02-02 23:00:00,
2013-02-02 18:15:00,57.0,35.3,29.92,East,90,0.0,-999.0,44,-99.99,,,0.00,Acu-Link.com,2013-02-02 23:15:00,
2013-02-02 18:30:00,55.2,37.4,29.92,East,90,0.0,-999.0,51,-99.99,,,0.00,Acu-Link.com,2013-02-02 23:30:00,
2013-02-02 18:46:00,53.6,37.8,29.92,SE,135,0.0,-999.0,55,-99.99,,,0.00,Acu-Link.com,2013-02-02 23:46:00,
2013-02-02 19:01:00,52.2,38.3,29.93,SE,135,0.0,-999.0,59,-99.99,,,0.00,Acu-Link.com,2013-02-03 00:01:00,
2013-02-02 19:16:00,51.1,38.9,29.93,SE,135,0.0,-999.0,63,-99.99,,,0.00,Acu-Link.com,2013-02-03 00:16:00,
2013-02-02 19:32:00,49.8,38.9,29.93,SE,135,0.0,-999.0,66,-99.99,,,0.00,Acu-Link.com,2013-02-03 00:32:00,
2013-02-02 19:47:00,48.9,39.2,29.92,East,90,0.0,-999.0,69,-99.99,,,0.00,Acu-Link.com,2013-02-03 00:47:00,
2013-02-02 20:02:00,47.5,37.5,29.93,ESE,112,0.0,-999.0,68,-99.99,,,0.00,Acu-Link.com,2013-02-03 01:02:00,
2013-02-02 20:18:00,46.2,36.6,29.93,SSE,157,0.0,-999.0,69,-99.99,,,0.00,Acu-Link.com,2013-02-03 01:18:00,
2013-02-02 20:33:00,45.5,37.0,29.93,South,180,0.0,-999.0,72,-99.99,,,0.00,Acu-Link.com,2013-02-03 01:33:00,
2013-02-02 20:48:00,45.0,37.5,29.93,SE,135,0.0,-999.0,75,-99.99,,,0.00,Acu-Link.com,2013-02-03 01:48:00,
2013-02-02 21:03:00,44.6,38.2,29.93,SSE,157,0.0,-999.0,78,-99.99,,,0.00,Acu-Link.com,2013-02-03 02:03:00,
2013-02-02 21:18:00,43.7,38.9,29.94,East,90,0.0,-999.0,83,-99.99,,,0.00,Acu-Link.com,2013-02-03 02:18:00,
2013-02-02 21:34:00,43.3,39.4,29.94,SE,135,0.0,-999.0,86,-99.99,,,0.00,Acu-Link.com,2013-02-03 02:34:00,
2013-02-02 21:49:00,42.8,39.5,29.94,SE,135,0.0,-999.0,88,-99.99,,,0.00,Acu-Link.com,2013-02-03 02:49:00,
2013-02-02 22:04:00,42.4,39.1,29.93,ESE,112,0.0,-999.0,88,-99.99,,,0.00,Acu-Link.com,2013-02-03 03:04:00,
2013-02-02 22:19:00,42.3,39.5,29.93,SE,135,0.0,-999.0,90,-99.99,,,0.00,Acu-Link.com,2013-02-03 03:19:00,
2013-02-02 22:35:00,41.9,39.5,29.93,SE,135,0.0,-999.0,91,-99.99,,,0.00,Acu-Link.com,2013-02-03 03:35:00,
2013-02-02 22:50:00,41.4,39.2,29.93,ESE,112,0.0,-999.0,92,-99.99,,,0.00,Acu-Link.com,2013-02-03 03:50:00,
2013-02-02 23:05:00,40.6,38.8,29.92,East,90,0.0,-999.0,93,-99.99,,,0.00,Acu-Link.com,2013-02-03 04:05:00,
2013-02-02 23:21:00,40.6,38.8,29.92,West,270,0.0,-999.0,93,-99.99,,,0.00,Acu-Link.com,2013-02-03 04:21:00,
2013-02-02 23:36:00,40.5,38.9,29.92,ESE,112,0.0,-999.0,94,-99.99,,,0.00,Acu-Link.com,2013-02-03 04:36:00,
2013-02-02 23:51:00,40.3,38.7,29.92,West,270,0.0,-999.0,94,-99.99,,,0.00,Acu-Link.com,2013-02-03 04:51:00,